N575JT -KORL
Flight info
| Callsign | N575JT |
|---|---|
| Flight time | N/A |
| Altitude | VFR030 |
| Route | |
| Aircraft | LJ35/M-VGD/C |
Departure
| Time | N/A |
|---|---|
| Airport | - |
Arrival
| Time | 2026-04-18 11:46 |
|---|---|
| Airport | Orlando Executive Airport (KORL) |
| Time | Latitude | Longitude | Altitude | Speed | Heading |
|---|---|---|---|---|---|
| 2026-04-18 11:38 | 28.82643 | -81.29873 | 4702 ft | 232 kts | 210° |
| 2026-04-18 11:38 | 28.81254 | -81.30830 | 4669 ft | 232 kts | 210° |
| 2026-04-18 11:38 | 28.79887 | -81.31770 | 4631 ft | 233 kts | 210° |
| 2026-04-18 11:39 | 28.78489 | -81.32732 | 4530 ft | 236 kts | 210° |
| 2026-04-18 11:39 | 28.77072 | -81.33706 | 4414 ft | 239 kts | 211° |
| 2026-04-18 11:39 | 28.75641 | -81.34689 | 4308 ft | 241 kts | 211° |
| 2026-04-18 11:39 | 28.74199 | -81.35681 | 4211 ft | 243 kts | 211° |
| 2026-04-18 11:40 | 28.72859 | -81.36601 | 4089 ft | 243 kts | 211° |
| 2026-04-18 11:40 | 28.71405 | -81.37599 | 3894 ft | 244 kts | 211° |
| 2026-04-18 11:40 | 28.69958 | -81.38620 | 3701 ft | 245 kts | 215° |
| 2026-04-18 11:40 | 28.68649 | -81.39862 | 3504 ft | 245 kts | 222° |
| 2026-04-18 11:41 | 28.67391 | -81.41175 | 3330 ft | 245 kts | 223° |
| 2026-04-18 11:41 | 28.66143 | -81.42491 | 3143 ft | 244 kts | 223° |
| 2026-04-18 11:41 | 28.64896 | -81.43808 | 2966 ft | 244 kts | 223° |
| 2026-04-18 11:41 | 28.63659 | -81.45116 | 2789 ft | 240 kts | 223° |
| 2026-04-18 11:42 | 28.62424 | -81.46325 | 2567 ft | 230 kts | 212° |
| 2026-04-18 11:42 | 28.60952 | -81.46800 | 2200 ft | 207 kts | 179° |
| 2026-04-18 11:42 | 28.59650 | -81.46481 | 1756 ft | 178 kts | 164° |
| 2026-04-18 11:42 | 28.58529 | -81.46059 | 1469 ft | 161 kts | 163° |
| 2026-04-18 11:43 | 28.57514 | -81.45671 | 1474 ft | 152 kts | 163° |
| 2026-04-18 11:43 | 28.56502 | -81.45284 | 1486 ft | 155 kts | 163° |
| 2026-04-18 11:43 | 28.55476 | -81.44891 | 1480 ft | 156 kts | 163° |
| 2026-04-18 11:43 | 28.54443 | -81.44494 | 1491 ft | 157 kts | 163° |
| 2026-04-18 11:44 | 28.53403 | -81.44091 | 1489 ft | 158 kts | 163° |
| 2026-04-18 11:44 | 28.52432 | -81.43519 | 1490 ft | 161 kts | 134° |
| 2026-04-18 11:44 | 28.52037 | -81.42342 | 1489 ft | 163 kts | 98° |
| 2026-04-18 11:44 | 28.51938 | -81.41132 | 1399 ft | 170 kts | 96° |
| 2026-04-18 11:45 | 28.52026 | -81.39734 | 1328 ft | 174 kts | 75° |
| 2026-04-18 11:45 | 28.52502 | -81.38481 | 1166 ft | 173 kts | 64° |
| 2026-04-18 11:45 | 28.53020 | -81.37234 | 916 ft | 175 kts | 67° |
| 2026-04-18 11:45 | 28.53495 | -81.35989 | 636 ft | 168 kts | 67° |
| 2026-04-18 11:46 | 28.53952 | -81.34777 | 331 ft | 163 kts | 67° |
| 2026-04-18 11:46 | 28.54383 | -81.33656 | 115 ft | 146 kts | 66° |
| 2026-04-18 11:46 | 28.54731 | -81.32757 | 112 ft | 74 kts | 65° |
| 2026-04-18 11:46 | 28.54875 | -81.32382 | 115 ft | 26 kts | 68° |
| 2026-04-18 11:47 | 28.54934 | -81.32301 | 116 ft | 10 kts | 348° |
| 2026-04-18 11:47 | 28.54993 | -81.32327 | 115 ft | 2 kts | 337° |
| 2026-04-18 11:47 | 28.55015 | -81.32338 | 113 ft | 4 kts | 335° |
| 2026-04-18 11:47 | 28.55023 | -81.32379 | 113 ft | 0 kts | 245° |
| 2026-04-18 11:48 | 28.55020 | -81.32386 | 113 ft | 3 kts | 246° |
| 2026-04-18 11:48 | 28.55015 | -81.32397 | 113 ft | 3 kts | 247° |
| 2026-04-18 11:48 | 28.55002 | -81.32433 | 113 ft | 0 kts | 248° |
| 2026-04-18 11:48 | 28.54999 | -81.32439 | 113 ft | 2 kts | 247° |
| 2026-04-18 11:49 | 28.54984 | -81.32477 | 111 ft | 8 kts | 245° |
| 2026-04-18 11:49 | 28.54954 | -81.32559 | 109 ft | 15 kts | 246° |
| 2026-04-18 11:49 | 28.54924 | -81.32638 | 109 ft | 13 kts | 245° |
| 2026-04-18 11:49 | 28.54891 | -81.32724 | 110 ft | 11 kts | 248° |
| 2026-04-18 11:50 | 28.54857 | -81.32815 | 111 ft | 15 kts | 247° |
| 2026-04-18 11:50 | 28.54812 | -81.32936 | 111 ft | 15 kts | 245° |
| 2026-04-18 11:50 | 28.54761 | -81.33063 | 111 ft | 20 kts | 245° |
| 2026-04-18 11:50 | 28.54723 | -81.33187 | 111 ft | 11 kts | 266° |
| 2026-04-18 11:51 | 28.54714 | -81.33294 | 111 ft | 17 kts | 263° |
| 2026-04-18 11:51 | 28.54704 | -81.33417 | 110 ft | 14 kts | 264° |
| 2026-04-18 11:51 | 28.54693 | -81.33521 | 110 ft | 13 kts | 263° |
| 2026-04-18 11:51 | 28.54714 | -81.33587 | 111 ft | 11 kts | 12° |
| 2026-04-18 11:52 | 28.54763 | -81.33559 | 111 ft | 4 kts | 101° |
| 2026-04-18 11:52 | 28.54760 | -81.33554 | 111 ft | 2 kts | 129° |
| 2026-04-18 11:52 | 28.54753 | -81.33549 | 109 ft | 0 kts | 152° |